Heredia, Costa Rica
Current Conditions -  °F | °C
As of 3:00 PM on Monday 20 Oct 2014 (Local Time) from MRPV Reporting Station
Moderate Rain Moderate Rain  
Wind Chill: 68°   Ceiling: 10000
Heat Index: 68°   Visibility: 6mi
Dew Point: 68°   Wind: 2mph
Humidity: 100%   Direction: 240°WSW
Pressure: 29.92"   Gusts: NA
Location:  10°N, 84.12°W
Report Text: MRPV 202100Z 24002KT 9999 RA FEW005TCU BKN100 20/20 A2992 NOSIG
Loading
Personal Weather Stations






























Interactive Weather Map
Tropical Storm Tracking
New forecast layout! Learn more

10-Day Weather Forecast

Advertisements
Track Severe Weather on mobile